createdAt,value
2022-11-26T00:02:28.065Z,5.03
2022-11-26T00:05:02.572Z,4.87
2022-11-26T00:07:36.056Z,4.68
2022-11-26T00:10:19.108Z,4.76
2022-11-26T00:12:50.304Z,4.89
2022-11-26T00:15:25.255Z,4.94
2022-11-26T00:17:57.900Z,4.98
2022-11-26T00:20:31.545Z,4.99
2022-11-26T00:23:05.501Z,5.03
2022-11-26T00:25:44.678Z,4.96
2022-11-26T00:28:27.324Z,4.99
2022-11-26T00:31:01.922Z,4.96
2022-11-26T00:33:36.454Z,4.99
2022-11-26T00:36:18.719Z,4.94
2022-11-26T00:38:55.173Z,5.01
2022-11-26T00:41:30.973Z,4.99
2022-11-26T00:44:03.944Z,4.97
2022-11-26T00:46:37.112Z,5.05
2022-11-26T00:49:10.228Z,5.06
2022-11-26T00:51:44.366Z,5.09
2022-11-26T00:54:20.536Z,5.08
2022-11-26T00:56:53.968Z,5.06
2022-11-26T00:59:26.918Z,5.11
2022-11-26T01:01:57.250Z,5.06
2022-11-26T01:04:29.423Z,5.01
2022-11-26T01:07:01.863Z,5.03
2022-11-26T01:09:34.635Z,5.05
2022-11-26T01:12:14.043Z,5.06
2022-11-26T01:14:46.386Z,5.09
2022-11-26T01:17:18.939Z,5.13
2022-11-26T01:19:50.896Z,5.01
2022-11-26T01:22:25.571Z,5.07
2022-11-26T01:24:57.732Z,5.03
2022-11-26T01:27:30.846Z,4.97
2022-11-26T01:30:02.964Z,5.08
2022-11-26T01:32:35.520Z,5.03
2022-11-26T01:35:06.843Z,5.07
2022-11-26T01:37:39.495Z,5.08
2022-11-26T01:40:40.440Z,5.14
2022-11-26T01:43:25.178Z,5.05
2022-11-26T01:45:59.908Z,5.09
2022-11-26T01:48:35.183Z,5.10
2022-11-26T01:51:11.742Z,4.98
2022-11-26T01:53:52.926Z,5.03
2022-11-26T01:56:32.242Z,5.06
2022-11-26T01:59:09.939Z,5.04
2022-11-26T02:01:42.397Z,5.14
2022-11-26T02:04:14.897Z,5.19
2022-11-26T02:06:50.581Z,5.13
2022-11-26T02:09:26.050Z,5.15
2022-11-26T02:11:58.768Z,5.16
2022-11-26T02:14:35.820Z,5.17
2022-11-26T02:17:26.345Z,5.12
2022-11-26T02:20:36.402Z,5.07
2022-11-26T02:23:52.636Z,4.92
2022-11-26T02:26:49.470Z,4.95
2022-11-26T02:29:30.506Z,5.01
2022-11-26T02:32:10.137Z,5.14
2022-11-26T02:34:49.755Z,5.08
2022-11-26T02:37:26.616Z,5.08
2022-11-26T02:39:59.275Z,5.02
2022-11-26T02:42:33.136Z,4.93
2022-11-26T02:45:09.026Z,4.97
2022-11-26T02:47:47.032Z,4.90
2022-11-26T02:50:23.359Z,4.98
2022-11-26T02:52:58.502Z,5.04
2022-11-26T02:55:36.658Z,4.87
2022-11-26T02:58:09.862Z,4.74
2022-11-26T03:00:43.166Z,4.93
2022-11-26T03:03:23.969Z,4.97
2022-11-26T03:05:59.127Z,5.00
2022-11-26T03:08:32.751Z,4.96
2022-11-26T03:11:06.207Z,4.96
2022-11-26T03:13:39.068Z,4.90
2022-11-26T03:16:13.456Z,4.84
2022-11-26T03:18:46.438Z,4.91
2022-11-26T03:21:18.533Z,4.81
2022-11-26T03:23:50.457Z,4.78
2022-11-26T03:26:22.867Z,4.89
2022-11-26T03:28:53.986Z,4.96
2022-11-26T03:31:26.880Z,4.95
2022-11-26T03:33:59.777Z,4.84
2022-11-26T03:36:33.556Z,4.89
2022-11-26T03:39:06.495Z,4.86
2022-11-26T03:41:38.807Z,4.91
2022-11-26T03:44:10.662Z,4.88
2022-11-26T03:46:44.055Z,4.92
2022-11-26T03:49:17.542Z,4.91
2022-11-26T03:51:50.285Z,4.86
2022-11-26T03:54:21.229Z,4.90
2022-11-26T03:56:54.138Z,4.91
2022-11-26T03:59:27.266Z,4.85
2022-11-26T04:01:59.437Z,4.79
2022-11-26T04:04:32.666Z,4.78
2022-11-26T04:07:04.506Z,4.71
2022-11-26T04:09:36.503Z,4.64
2022-11-26T04:12:09.161Z,4.60
2022-11-26T04:14:41.166Z,4.58
2022-11-26T04:17:13.406Z,4.60
2022-11-26T04:19:45.097Z,4.62
2022-11-26T04:22:17.458Z,4.52
2022-11-26T04:24:49.129Z,4.54
2022-11-26T04:27:21.994Z,4.45
2022-11-26T04:29:53.872Z,4.53
2022-11-26T04:32:25.694Z,4.65
2022-11-26T04:34:57.489Z,4.73
2022-11-26T04:37:29.341Z,4.70
2022-11-26T04:40:01.516Z,4.74
2022-11-26T04:42:34.676Z,4.76
2022-11-26T04:45:08.207Z,4.76
2022-11-26T04:47:42.958Z,4.68
2022-11-26T04:50:15.786Z,4.60
2022-11-26T04:52:48.619Z,4.48
2022-11-26T04:55:22.413Z,4.43
2022-11-26T04:57:55.091Z,4.32
2022-11-26T05:00:27.180Z,4.31
2022-11-26T05:02:59.186Z,4.32
2022-11-26T05:05:31.115Z,4.30
2022-11-26T05:08:03.053Z,4.24
2022-11-26T05:10:36.305Z,4.14
2022-11-26T05:13:08.350Z,4.12
2022-11-26T05:15:40.198Z,4.25
2022-11-26T05:18:12.351Z,4.25
2022-11-26T05:20:45.300Z,4.43
2022-11-26T05:23:17.415Z,4.41
2022-11-26T05:25:51.483Z,4.37
2022-11-26T05:28:23.433Z,4.29
2022-11-26T05:31:02.972Z,4.42
2022-11-26T05:33:34.961Z,4.49
2022-11-26T05:36:08.174Z,4.54
2022-11-26T05:38:40.704Z,4.58
2022-11-26T05:41:12.893Z,4.42
2022-11-26T05:43:45.984Z,4.55
2022-11-26T05:46:22.313Z,4.52
2022-11-26T05:48:54.914Z,4.60
2022-11-26T05:51:26.792Z,4.48
2022-11-26T05:53:59.171Z,4.32
2022-11-26T05:56:32.446Z,4.44
2022-11-26T05:59:05.203Z,4.45
2022-11-26T06:01:37.803Z,4.57
2022-11-26T06:04:10.034Z,4.53
2022-11-26T06:06:42.496Z,4.39
2022-11-26T06:09:14.970Z,4.34
2022-11-26T06:11:46.888Z,4.29
2022-11-26T06:14:20.256Z,4.26
2022-11-26T06:16:52.828Z,4.13
2022-11-26T06:19:27.129Z,4.14
2022-11-26T06:22:00.250Z,4.06
2022-11-26T06:24:33.903Z,4.23
2022-11-26T06:27:06.440Z,4.20
2022-11-26T06:29:40.508Z,4.22
2022-11-26T06:32:12.709Z,4.11
2022-11-26T06:34:45.547Z,4.22
2022-11-26T06:37:20.513Z,4.34
2022-11-26T06:39:51.151Z,4.37
2022-11-26T06:42:24.206Z,4.18
2022-11-26T06:44:59.794Z,4.16
2022-11-26T06:47:33.545Z,4.35
2022-11-26T06:50:10.699Z,4.31
2022-11-26T06:52:45.199Z,4.45
2022-11-26T06:55:17.869Z,4.40
2022-11-26T06:57:53.523Z,4.45
2022-11-26T07:00:28.315Z,4.42
2022-11-26T07:03:02.600Z,4.45
2022-11-26T07:05:36.578Z,4.48
2022-11-26T07:08:10.331Z,4.49
2022-11-26T07:10:48.709Z,4.40
2022-11-26T07:13:21.417Z,4.48
2022-11-26T07:15:54.519Z,4.38
2022-11-26T07:18:27.318Z,4.23
2022-11-26T07:21:07.488Z,4.17
2022-11-26T07:23:40.607Z,4.07
2022-11-26T07:26:15.304Z,4.02
2022-11-26T07:28:49.009Z,4.03
2022-11-26T07:31:23.677Z,4.03
2022-11-26T07:33:57.160Z,4.07
2022-11-26T07:36:31.364Z,4.14
2022-11-26T07:39:05.620Z,4.15
2022-11-26T07:41:37.993Z,4.24
2022-11-26T07:44:15.106Z,4.34
2022-11-26T07:46:47.771Z,4.45
2022-11-26T07:49:20.615Z,4.53
2022-11-26T07:51:51.465Z,4.48
2022-11-26T07:54:24.445Z,4.45
2022-11-26T07:56:57.252Z,4.24
2022-11-26T07:59:30.524Z,4.16
2022-11-26T08:02:03.839Z,4.07
2022-11-26T08:04:36.801Z,4.24
2022-11-26T08:07:12.050Z,4.28
2022-11-26T08:09:48.223Z,4.39
2022-11-26T08:12:21.681Z,4.35
2022-11-26T08:14:54.860Z,4.40
2022-11-26T08:17:27.870Z,4.55
2022-11-26T08:20:00.394Z,4.38
2022-11-26T08:22:34.028Z,4.37
2022-11-26T08:25:08.301Z,4.28
2022-11-26T08:27:40.755Z,4.25
2022-11-26T08:30:15.447Z,4.16
2022-11-26T08:32:47.518Z,4.42
2022-11-26T08:35:34.294Z,4.56
2022-11-26T08:38:13.877Z,4.65
2022-11-26T08:40:45.824Z,4.54
2022-11-26T08:43:18.659Z,4.37
2022-11-26T08:45:57.000Z,4.38
2022-11-26T08:48:32.045Z,4.36
2022-11-26T08:51:10.547Z,4.37
2022-11-26T08:53:43.255Z,4.61
2022-11-26T08:56:16.331Z,4.76
2022-11-26T08:58:49.003Z,4.71
2022-11-26T09:01:24.602Z,4.56
2022-11-26T09:03:58.557Z,4.63
2022-11-26T09:06:32.894Z,4.85
2022-11-26T09:09:15.790Z,4.70
2022-11-26T09:11:51.226Z,4.76
2022-11-26T09:14:26.116Z,4.88
2022-11-26T09:16:59.243Z,5.04
2022-11-26T09:19:31.815Z,4.97
2022-11-26T09:22:04.375Z,5.07
2022-11-26T09:24:36.335Z,4.94
2022-11-26T09:27:11.045Z,4.77
2022-11-26T09:29:43.380Z,4.70
2022-11-26T09:32:25.035Z,4.62
2022-11-26T09:35:00.185Z,4.70
2022-11-26T09:37:33.456Z,4.87
2022-11-26T09:40:05.913Z,4.81
2022-11-26T09:42:53.884Z,4.78
2022-11-26T09:45:39.331Z,4.79
2022-11-26T09:48:16.837Z,4.90
2022-11-26T09:50:52.717Z,4.84
2022-11-26T09:53:28.332Z,4.76
2022-11-26T09:56:02.426Z,4.85
2022-11-26T09:58:41.854Z,4.81
2022-11-26T10:01:19.701Z,4.81
2022-11-26T10:03:53.843Z,4.68
2022-11-26T10:06:39.557Z,4.63
2022-11-26T10:09:44.336Z,4.51
2022-11-26T10:12:56.265Z,4.73
2022-11-26T10:15:38.834Z,4.69
2022-11-26T10:18:24.170Z,4.77
2022-11-26T10:21:12.462Z,4.71
2022-11-26T10:23:49.036Z,4.89
2022-11-26T10:26:25.763Z,4.91
2022-11-26T10:29:08.221Z,4.77
2022-11-26T10:31:47.467Z,4.70
2022-11-26T10:34:29.826Z,4.71
2022-11-26T10:37:03.427Z,4.75
2022-11-26T10:39:35.465Z,4.78
2022-11-26T10:42:14.856Z,4.84
2022-11-26T10:44:47.686Z,4.68
2022-11-26T10:47:34.490Z,4.71
2022-11-26T10:53:25.138Z,4.76
2022-11-26T10:55:59.108Z,5.02
2022-11-26T10:58:34.623Z,5.09
2022-11-26T11:01:08.495Z,5.00
2022-11-26T11:06:44.689Z,4.90
2022-11-26T11:09:33.024Z,4.99
2022-11-26T11:12:23.609Z,5.01
2022-11-26T11:14:56.176Z,4.90
2022-11-26T11:17:33.753Z,4.94
2022-11-26T11:20:27.291Z,5.05
2022-11-26T11:23:06.791Z,5.01
2022-11-26T11:25:41.567Z,5.04
2022-11-26T11:28:20.575Z,5.13
2022-11-26T11:31:05.789Z,5.24
2022-11-26T11:33:38.374Z,5.19
2022-11-26T11:36:22.934Z,5.28
2022-11-26T11:38:56.107Z,5.31
2022-11-26T11:41:32.890Z,5.48
2022-11-26T11:44:14.460Z,5.57
2022-11-26T11:47:24.204Z,5.62
2022-11-26T11:50:20.772Z,5.63
2022-11-26T11:53:17.755Z,5.63
2022-11-26T11:56:19.084Z,5.63
2022-11-26T11:59:22.376Z,5.42
2022-11-26T12:02:17.264Z,5.33
2022-11-26T12:05:04.926Z,5.38
2022-11-26T12:07:49.055Z,5.55
2022-11-26T12:10:33.900Z,5.65
2022-11-26T12:13:14.259Z,5.57
2022-11-26T12:15:54.782Z,5.65
2022-11-26T12:18:32.499Z,5.46
2022-11-26T12:21:11.163Z,5.42
2022-11-26T12:23:49.996Z,5.57
2022-11-26T12:26:32.248Z,5.68
2022-11-26T12:29:11.913Z,5.59
2022-11-26T12:31:48.117Z,5.61
2022-11-26T12:34:30.177Z,5.38
2022-11-26T12:37:06.441Z,5.45
2022-11-26T12:39:51.916Z,5.46
2022-11-26T12:42:31.592Z,5.55
2022-11-26T12:45:19.190Z,5.57
2022-11-26T12:47:59.238Z,5.40
2022-11-26T12:50:40.120Z,5.41
2022-11-26T12:53:23.005Z,5.60
2022-11-26T12:55:56.511Z,5.69
2022-11-26T12:58:45.698Z,5.67
2022-11-26T13:01:17.542Z,5.63
2022-11-26T13:03:49.527Z,5.75
2022-11-26T13:06:33.738Z,5.80
2022-11-26T13:09:22.897Z,5.78
2022-11-26T13:12:05.117Z,5.83
2022-11-26T13:14:42.825Z,5.72
2022-11-26T13:17:17.203Z,5.73
2022-11-26T13:19:53.003Z,5.64
2022-11-26T13:23:04.011Z,5.74
2022-11-26T13:25:53.450Z,5.62
2022-11-26T13:28:37.575Z,5.43
2022-11-26T13:31:29.785Z,5.53
2022-11-26T13:34:17.165Z,5.44
2022-11-26T13:37:11.418Z,5.29
2022-11-26T13:40:04.567Z,5.52
2022-11-26T13:42:44.856Z,5.63
2022-11-26T13:45:58.852Z,5.72
2022-11-26T13:48:40.312Z,5.80
2022-11-26T13:51:19.723Z,5.73
2022-11-26T13:53:57.527Z,5.65
2022-11-26T13:56:32.851Z,5.71
2022-11-26T13:59:14.298Z,5.72
2022-11-26T14:01:47.692Z,5.76
2022-11-26T14:04:54.873Z,5.77
2022-11-26T14:07:27.733Z,5.74
2022-11-26T14:10:02.439Z,5.77
2022-11-26T14:13:11.672Z,5.75
2022-11-26T14:16:10.738Z,5.73
2022-11-26T14:19:08.667Z,5.74
2022-11-26T14:22:03.576Z,5.77
2022-11-26T14:25:05.278Z,5.82
2022-11-26T14:27:40.643Z,5.79
2022-11-26T14:30:29.938Z,5.75
2022-11-26T14:33:13.035Z,5.63
2022-11-26T14:35:56.885Z,5.62
2022-11-26T14:38:34.867Z,5.71
2022-11-26T14:41:06.792Z,5.75
2022-11-26T14:43:39.512Z,5.71
2022-11-26T14:46:17.994Z,5.59
2022-11-26T14:48:51.020Z,5.60
2022-11-26T14:51:28.033Z,5.67
2022-11-26T14:54:02.442Z,5.65
2022-11-26T14:56:41.810Z,5.68
2022-11-26T14:59:18.800Z,5.57
2022-11-26T15:01:51.614Z,5.47
2022-11-26T15:04:29.247Z,5.34
2022-11-26T15:07:02.535Z,5.26
2022-11-26T15:09:35.083Z,5.26
2022-11-26T15:12:13.935Z,5.28
2022-11-26T15:14:49.980Z,5.25
2022-11-26T15:17:25.157Z,5.20
2022-11-26T15:19:59.335Z,5.20
2022-11-26T15:22:37.650Z,5.21
2022-11-26T15:25:18.497Z,5.18
2022-11-26T15:27:59.918Z,5.19
2022-11-26T15:30:33.399Z,5.36
2022-11-26T15:33:13.422Z,5.34
2022-11-26T15:35:46.756Z,5.24
2022-11-26T15:38:20.913Z,5.18
2022-11-26T15:40:56.977Z,5.19
2022-11-26T15:43:36.436Z,5.14
2022-11-26T15:46:18.035Z,5.14
2022-11-26T15:48:53.654Z,5.20
2022-11-26T15:51:35.553Z,5.08
2022-11-26T15:54:19.082Z,5.13
2022-11-26T15:56:56.493Z,5.27
2022-11-26T15:59:34.242Z,5.12
2022-11-26T16:02:19.608Z,5.15
2022-11-26T16:04:54.151Z,5.15
2022-11-26T16:07:29.691Z,5.11
2022-11-26T16:10:27.011Z,5.13
2022-11-26T16:13:23.225Z,5.13
2022-11-26T16:16:03.260Z,5.17
2022-11-26T16:18:42.763Z,5.28
2022-11-26T16:21:22.368Z,5.31
2022-11-26T16:24:02.152Z,5.21
2022-11-26T16:26:52.924Z,5.16
2022-11-26T16:29:25.025Z,5.16
2022-11-26T16:31:58.477Z,5.05
2022-11-26T16:34:31.443Z,5.04
2022-11-26T16:37:17.809Z,5.01
2022-11-26T16:39:54.089Z,5.05
2022-11-26T16:42:27.083Z,5.01
2022-11-26T16:45:03.936Z,5.05
2022-11-26T16:47:42.329Z,5.09
2022-11-26T16:50:20.427Z,5.16
2022-11-26T16:52:56.683Z,5.06
2022-11-26T16:55:29.673Z,5.01
2022-11-26T16:58:02.925Z,5.09
2022-11-26T17:00:36.760Z,5.27
2022-11-26T17:03:13.069Z,5.33
2022-11-26T17:05:46.651Z,5.39
2022-11-26T17:08:19.321Z,5.45
2022-11-26T17:10:52.736Z,5.48
2022-11-26T17:13:25.448Z,5.53
2022-11-26T17:15:58.740Z,5.52
2022-11-26T17:18:30.804Z,5.53
2022-11-26T17:21:04.066Z,5.51
2022-11-26T17:23:36.291Z,5.35
2022-11-26T17:26:19.192Z,5.19
2022-11-26T17:28:52.785Z,5.05
2022-11-26T17:31:24.581Z,5.22
2022-11-26T17:33:56.854Z,5.37
2022-11-26T17:36:36.447Z,5.45
2022-11-26T17:39:10.585Z,5.51
2022-11-26T17:41:42.898Z,5.52
2022-11-26T17:44:14.782Z,5.56
2022-11-26T17:47:15.788Z,5.56
2022-11-26T17:49:39.221Z,5.56
2022-11-26T17:52:11.379Z,5.87
2022-11-26T17:54:44.064Z,5.72
2022-11-26T17:57:15.123Z,5.62
2022-11-26T17:59:47.280Z,5.64
2022-11-26T18:02:19.828Z,5.38
2022-11-26T18:04:50.581Z,5.25
2022-11-26T18:07:22.714Z,5.16
2022-11-26T18:09:57.772Z,5.14
2022-11-26T18:12:34.407Z,5.21
2022-11-26T18:15:08.443Z,5.14
2022-11-26T18:17:41.384Z,5.16
2022-11-26T18:20:14.503Z,5.16
2022-11-26T18:22:50.356Z,5.09
2022-11-26T18:25:23.178Z,5.01
2022-11-26T18:27:55.372Z,5.13
2022-11-26T18:30:30.603Z,5.15
2022-11-26T18:33:03.420Z,5.12
2022-11-26T18:35:35.784Z,5.15
2022-11-26T18:38:11.029Z,5.09
2022-11-26T18:40:43.807Z,5.10
2022-11-26T18:43:17.028Z,5.12
2022-11-26T18:45:50.822Z,5.13
2022-11-26T18:48:22.877Z,5.15
2022-11-26T18:51:00.374Z,5.10
2022-11-26T18:53:32.070Z,5.14
2022-11-26T18:56:07.395Z,5.17
2022-11-26T18:58:39.493Z,5.19
2022-11-26T19:01:21.792Z,5.12
2022-11-26T19:03:55.139Z,5.06
2022-11-26T19:06:29.107Z,5.02
2022-11-26T19:09:03.089Z,5.02
2022-11-26T19:11:35.711Z,5.16
2022-11-26T19:14:07.821Z,5.15
2022-11-26T19:16:39.854Z,5.09
2022-11-26T19:19:11.947Z,5.19
2022-11-26T19:21:43.737Z,5.29
2022-11-26T19:24:15.557Z,5.37
2022-11-26T19:26:47.238Z,5.38
2022-11-26T19:29:18.945Z,5.44
2022-11-26T19:31:50.751Z,5.42
2022-11-26T19:34:23.013Z,5.30
2022-11-26T19:36:57.806Z,5.38
2022-11-26T19:39:29.624Z,5.42
2022-11-26T19:42:01.525Z,5.42
2022-11-26T19:44:34.547Z,5.45
2022-11-26T19:47:06.510Z,5.43
2022-11-26T19:49:38.606Z,5.34
2022-11-26T19:52:10.680Z,5.33
2022-11-26T19:54:42.498Z,5.26
2022-11-26T19:57:15.027Z,5.29
2022-11-26T19:59:46.989Z,5.39
2022-11-26T20:02:19.111Z,5.40
2022-11-26T20:04:51.461Z,5.44
2022-11-26T20:07:23.480Z,5.46
2022-11-26T20:09:55.696Z,5.48
2022-11-26T20:12:28.498Z,5.50
2022-11-26T20:15:00.653Z,5.48
2022-11-26T20:17:32.574Z,5.40
2022-11-26T20:20:05.361Z,5.43
2022-11-26T20:22:39.286Z,5.42
2022-11-26T20:25:15.351Z,5.26
2022-11-26T20:27:47.255Z,5.07
2022-11-26T20:30:20.261Z,4.93
2022-11-26T20:32:52.014Z,4.90
2022-11-26T20:35:24.439Z,4.98
2022-11-26T20:37:56.825Z,5.16
2022-11-26T20:40:29.213Z,5.22
2022-11-26T20:43:01.170Z,5.29
2022-11-26T20:45:33.323Z,5.32
2022-11-26T20:48:05.601Z,5.27
2022-11-26T20:50:38.709Z,5.37
2022-11-26T20:53:10.511Z,5.34
2022-11-26T20:55:42.184Z,5.17
2022-11-26T20:58:14.199Z,5.10
2022-11-26T21:00:46.284Z,5.09
2022-11-26T21:03:18.072Z,5.20
2022-11-26T21:05:50.076Z,5.14
2022-11-26T21:08:23.952Z,5.12
2022-11-26T21:10:56.266Z,5.38
2022-11-26T21:13:28.029Z,5.57
2022-11-26T21:16:02.202Z,5.40
2022-11-26T21:18:34.178Z,5.26
2022-11-26T21:21:11.599Z,5.17
2022-11-26T21:23:44.948Z,5.04
2022-11-26T21:26:19.460Z,5.01
2022-11-26T21:28:54.626Z,5.00
2022-11-26T21:31:30.123Z,5.04
2022-11-26T21:34:04.183Z,5.06
2022-11-26T21:36:37.944Z,4.98
2022-11-26T21:39:09.893Z,5.09
2022-11-26T21:41:42.475Z,5.02
2022-11-26T21:44:14.866Z,4.93
2022-11-26T21:46:46.805Z,4.85
2022-11-26T21:49:18.738Z,4.77
2022-11-26T21:51:51.785Z,4.78
2022-11-26T21:54:23.753Z,4.87
2022-11-26T21:56:55.609Z,5.02
2022-11-26T21:59:29.018Z,5.12
2022-11-26T22:02:01.116Z,5.20
2022-11-26T22:04:33.788Z,5.12
2022-11-26T22:07:06.139Z,5.14
2022-11-26T22:09:39.382Z,5.16
2022-11-26T22:12:12.798Z,5.19
2022-11-26T22:14:44.720Z,5.29
2022-11-26T22:17:17.232Z,5.33
2022-11-26T22:19:49.635Z,5.11
2022-11-26T22:22:22.339Z,5.12
2022-11-26T22:24:54.975Z,6.21
2022-11-26T22:27:26.822Z,6.21
2022-11-26T22:29:58.539Z,5.68
2022-11-26T22:32:30.356Z,5.62
2022-11-26T22:35:02.416Z,5.64
2022-11-26T22:37:34.340Z,5.63
2022-11-26T22:40:07.569Z,5.66
2022-11-26T22:42:40.938Z,5.58
2022-11-26T22:45:13.763Z,5.61
2022-11-26T22:47:47.442Z,5.55
2022-11-26T22:50:21.669Z,5.39
2022-11-26T22:52:53.924Z,5.50
2022-11-26T22:55:25.708Z,5.56
2022-11-26T22:57:57.442Z,5.57
2022-11-26T23:00:51.096Z,5.61
2022-11-26T23:03:24.601Z,5.62
2022-11-26T23:05:57.319Z,5.64
2022-11-26T23:08:29.003Z,5.47
2022-11-26T23:11:05.440Z,5.41
2022-11-26T23:13:37.579Z,5.43
2022-11-26T23:16:11.158Z,5.52
2022-11-26T23:18:43.552Z,5.48
2022-11-26T23:21:17.386Z,5.45
2022-11-26T23:23:50.015Z,5.40
2022-11-26T23:26:26.541Z,5.41
2022-11-26T23:29:00.845Z,5.55
2022-11-26T23:31:34.909Z,5.62
2022-11-26T23:34:07.780Z,5.66
2022-11-26T23:36:37.927Z,5.70
2022-11-26T23:39:12.161Z,5.69
2022-11-26T23:41:44.765Z,5.71
2022-11-26T23:44:16.362Z,5.74
2022-11-26T23:46:48.411Z,5.63
2022-11-26T23:49:22.622Z,5.47
2022-11-26T23:51:54.263Z,5.48
2022-11-26T23:54:26.243Z,5.39
2022-11-26T23:56:58.022Z,5.51
2022-11-26T23:59:29.770Z,5.57
